createdAt,value
2019-04-20T00:02:20.646Z,44.67
2019-04-20T00:06:25.007Z,44.88
2019-04-20T00:10:30.880Z,45.09
2019-04-20T00:14:37.486Z,45.45
2019-04-20T00:18:48.223Z,45.83
2019-04-20T00:23:03.835Z,46.13
2019-04-20T00:27:32.815Z,46.31
2019-04-20T00:31:30.745Z,46.50
2019-04-20T00:35:21.126Z,46.51
2019-04-20T00:39:25.905Z,46.33
2019-04-20T00:43:34.274Z,46.34
2019-04-20T00:47:48.969Z,46.42
2019-04-20T00:52:07.499Z,46.50
2019-04-20T00:55:48.575Z,46.60
2019-04-20T01:00:15.050Z,46.67
2019-04-20T01:04:19.823Z,46.78
2019-04-20T01:08:27.394Z,46.76
2019-04-20T01:12:35.061Z,46.80
2019-04-20T01:16:47.367Z,46.84
2019-04-20T01:20:45.209Z,46.91
2019-04-20T01:24:51.592Z,46.85
2019-04-20T01:29:08.956Z,47.19
2019-04-20T01:33:16.309Z,47.40
2019-04-20T01:37:24.451Z,47.40
2019-04-20T01:41:14.043Z,47.80
2019-04-20T01:45:26.745Z,48.03
2019-04-20T01:49:28.619Z,48.20
2019-04-20T01:53:50.495Z,48.19
2019-04-20T01:58:07.961Z,48.31
2019-04-20T02:02:05.221Z,48.43
2019-04-20T02:06:11.111Z,48.48
2019-04-20T02:10:14.834Z,48.56
2019-04-20T02:14:26.632Z,48.85
2019-04-20T02:18:36.166Z,49.34
2019-04-20T02:22:46.463Z,49.75
2019-04-20T02:26:36.737Z,49.92
2019-04-20T02:31:29.988Z,49.92
2019-04-20T02:35:48.037Z,50.02
2019-04-20T02:40:01.967Z,50.22
2019-04-20T02:48:01.547Z,50.63
2019-04-20T02:52:09.902Z,50.90
2019-04-20T02:56:12.948Z,51.01
2019-04-20T03:03:57.654Z,51.05
2019-04-20T03:08:17.662Z,51.14
2019-04-20T03:12:29.222Z,51.24
2019-04-20T03:16:24.226Z,51.41
2019-04-20T03:20:42.620Z,51.55
2019-04-20T03:24:59.298Z,51.72
2019-04-20T03:29:01.571Z,51.80
2019-04-20T03:33:26.353Z,51.88
2019-04-20T03:37:25.100Z,51.94
2019-04-20T03:41:16.233Z,51.90
2019-04-20T03:45:13.167Z,52.02
2019-04-20T03:49:38.015Z,52.06
2019-04-20T03:53:39.725Z,52.11
2019-04-20T03:57:52.927Z,52.15
2019-04-20T04:06:05.450Z,52.45
2019-04-20T04:10:15.974Z,52.59
2019-04-20T04:14:07.613Z,52.66
2019-04-20T04:18:21.849Z,52.74
2019-04-20T04:22:38.044Z,52.85
2019-04-20T04:26:45.605Z,53.03
2019-04-20T04:30:49.528Z,53.20
2019-04-20T04:34:54.212Z,53.30
2019-04-20T04:39:08.707Z,53.54
2019-04-20T04:43:10.403Z,53.69
2019-04-20T04:47:02.646Z,53.88
2019-04-20T04:51:08.988Z,53.93
2019-04-20T04:55:24.947Z,54.07
2019-04-20T04:59:17.067Z,54.26
2019-04-20T05:03:38.599Z,54.45
2019-04-20T05:07:43.763Z,54.77
2019-04-20T05:11:38.479Z,54.97
2019-04-20T05:15:58.258Z,55.15
2019-04-20T05:20:10.549Z,55.38
2019-04-20T05:24:29.165Z,55.50
2019-04-20T05:28:33.444Z,55.53
2019-04-20T05:32:35.749Z,55.51
2019-04-20T05:36:50.606Z,55.42
2019-04-20T05:41:04.509Z,55.32
2019-04-20T05:45:10.247Z,55.06
2019-04-20T05:49:20.694Z,54.98
2019-04-20T05:53:19.270Z,54.68
2019-04-20T05:57:31.957Z,54.35
2019-04-20T06:01:33.365Z,53.91
2019-04-20T06:05:45.902Z,53.40
2019-04-20T06:09:46.241Z,52.53
2019-04-20T06:14:02.372Z,51.46
2019-04-20T06:18:28.402Z,51.09
2019-04-20T06:22:45.653Z,50.47
2019-04-20T06:26:59.488Z,48.82
2019-04-20T06:30:51.120Z,48.82
2019-04-20T06:35:09.305Z,48.55
2019-04-20T06:39:18.703Z,49.00
2019-04-20T06:43:13.296Z,48.33
2019-04-20T06:47:25.603Z,47.71
2019-04-20T06:51:40.348Z,47.02
2019-04-20T06:55:44.073Z,46.04
2019-04-20T06:59:43.338Z,45.86
2019-04-20T07:08:03.008Z,45.54
2019-04-20T07:11:59.549Z,45.29
2019-04-20T07:16:13.702Z,45.34
2019-04-20T07:20:21.283Z,44.69
2019-04-20T07:24:40.272Z,43.79
2019-04-20T07:28:55.885Z,44.08
2019-04-20T07:32:49.634Z,44.13
2019-04-20T07:37:07.067Z,43.53
2019-04-20T07:40:56.289Z,43.00
2019-04-20T07:45:21.669Z,43.14
2019-04-20T07:49:07.671Z,42.94
2019-04-20T07:53:08.685Z,42.68
2019-04-20T07:57:19.451Z,42.06
2019-04-20T08:01:38.901Z,42.39
2019-04-20T08:05:36.733Z,41.93
2019-04-20T08:09:42.258Z,41.05
2019-04-20T08:13:58.927Z,41.06
2019-04-20T08:18:04.495Z,40.80
2019-04-20T08:22:15.562Z,40.49
2019-04-20T08:26:05.702Z,40.27
2019-04-20T08:30:25.002Z,40.85
2019-04-20T08:43:00.468Z,39.26
2019-04-20T08:47:03.843Z,39.84
2019-04-20T08:51:02.314Z,39.65
2019-04-20T08:55:05.387Z,37.19
2019-04-20T08:58:50.767Z,36.12
2019-04-20T09:03:02.510Z,36.36
2019-04-20T09:07:10.179Z,36.22
2019-04-20T09:11:26.091Z,35.51
2019-04-20T09:15:14.772Z,34.83
2019-04-20T09:19:32.726Z,35.03
2019-04-20T09:23:41.098Z,34.93
2019-04-20T09:27:43.534Z,32.79
2019-04-20T09:32:00.267Z,33.02
2019-04-20T09:36:09.697Z,32.88
2019-04-20T09:40:31.206Z,33.45
2019-04-20T09:44:20.071Z,33.19
2019-04-20T09:48:33.353Z,32.10
2019-04-20T09:52:49.074Z,32.29
2019-04-20T09:56:59.272Z,30.99
2019-04-20T10:00:58.156Z,29.20
2019-04-20T10:04:51.207Z,30.48
2019-04-20T10:08:58.535Z,30.14
2019-04-20T10:13:02.504Z,27.78
2019-04-20T10:17:07.752Z,29.81
2019-04-20T10:21:13.716Z,29.61
2019-04-20T10:25:18.580Z,28.44
2019-04-20T10:29:23.733Z,28.63
2019-04-20T10:33:28.038Z,28.03
2019-04-20T10:37:37.752Z,28.14
2019-04-20T10:41:49.184Z,27.63
2019-04-20T10:45:48.928Z,27.20
2019-04-20T10:49:55.332Z,26.31
2019-04-20T10:54:00.730Z,26.87
2019-04-20T10:58:04.923Z,27.02
2019-04-20T11:02:10.074Z,26.72
2019-04-20T11:06:16.475Z,27.04
2019-04-20T11:10:26.767Z,26.98
2019-04-20T11:14:31.834Z,26.44
2019-04-20T11:18:35.631Z,26.43
2019-04-20T11:22:40.273Z,26.00
2019-04-20T11:26:45.569Z,24.80
2019-04-20T11:30:52.143Z,26.17
2019-04-20T11:35:01.032Z,26.68
2019-04-20T11:39:04.896Z,26.94
2019-04-20T11:43:09.284Z,26.57
2019-04-20T11:47:14.728Z,26.20
2019-04-20T11:51:19.203Z,26.43
2019-04-20T11:55:26.597Z,26.92
2019-04-20T11:59:31.135Z,27.19
2019-04-20T12:03:47.865Z,25.79
2019-04-20T12:07:56.676Z,26.73
2019-04-20T12:12:15.617Z,25.81
2019-04-20T12:16:09.854Z,24.89
2019-04-20T12:20:14.969Z,25.68
2019-04-20T12:24:20.446Z,25.54
2019-04-20T12:28:25.398Z,25.32
2019-04-20T12:32:36.384Z,25.11
2019-04-20T12:36:35.720Z,25.30
2019-04-20T12:40:40.229Z,24.93
2019-04-20T12:44:45.824Z,25.24
2019-04-20T12:48:51.451Z,24.55
2019-04-20T12:52:56.745Z,25.44
2019-04-20T12:57:02.615Z,25.42
2019-04-20T13:01:07.024Z,25.23
2019-04-20T13:05:13.572Z,25.52
2019-04-20T13:09:20.944Z,25.88
2019-04-20T13:13:38.684Z,25.39
2019-04-20T13:17:44.356Z,26.46
2019-04-20T13:21:49.220Z,25.86
2019-04-20T13:25:55.009Z,25.34
2019-04-20T13:29:59.187Z,25.00
2019-04-20T13:34:03.788Z,25.15
2019-04-20T13:38:07.988Z,25.23
2019-04-20T13:42:19.145Z,24.81
2019-04-20T13:46:18.809Z,24.67
2019-04-20T13:50:25.952Z,24.94
2019-04-20T13:54:31.713Z,25.46
2019-04-20T13:59:10.446Z,24.53
2019-04-20T14:03:16.605Z,25.16
2019-04-20T14:07:22.004Z,24.87
2019-04-20T14:11:27.353Z,25.26
2019-04-20T14:15:33.175Z,24.91
2019-04-20T14:19:39.041Z,25.33
2019-04-20T14:23:45.375Z,25.05
2019-04-20T14:27:50.811Z,24.61
2019-04-20T14:31:55.677Z,25.13
2019-04-20T14:36:01.137Z,24.77
2019-04-20T14:40:06.295Z,25.07
2019-04-20T14:44:11.975Z,25.47
2019-04-20T14:48:16.467Z,25.02
2019-04-20T14:52:21.761Z,25.52
2019-04-20T14:56:27.933Z,25.60
2019-04-20T15:00:54.986Z,25.46
2019-04-20T15:04:59.635Z,25.00
2019-04-20T15:09:08.935Z,24.86
2019-04-20T15:13:15.049Z,25.88
2019-04-20T15:17:29.801Z,25.70
2019-04-20T15:21:37.745Z,25.39
2019-04-20T15:25:44.473Z,25.03
2019-04-20T15:29:54.019Z,25.44
2019-04-20T15:33:59.115Z,25.41
2019-04-20T15:38:05.001Z,25.18
2019-04-20T15:42:14.975Z,25.59
2019-04-20T15:46:23.375Z,25.58
2019-04-20T15:50:28.114Z,25.03
2019-04-20T15:54:33.710Z,24.75
2019-04-20T15:58:40.705Z,25.24
2019-04-20T16:03:01.621Z,24.89
2019-04-20T16:07:05.797Z,23.96
2019-04-20T16:11:11.215Z,24.79
2019-04-20T16:15:17.759Z,25.23
2019-04-20T16:19:32.864Z,24.92
2019-04-20T16:23:30.458Z,25.22
2019-04-20T16:27:38.771Z,25.05
2019-04-20T16:31:48.427Z,25.00
2019-04-20T16:35:52.253Z,24.90
2019-04-20T16:39:56.998Z,24.91
2019-04-20T16:44:05.064Z,25.14
2019-04-20T16:48:10.516Z,25.47
2019-04-20T16:52:15.320Z,25.78
2019-04-20T16:56:22.413Z,25.66
2019-04-20T17:00:27.793Z,25.46
2019-04-20T17:04:33.815Z,25.46
2019-04-20T17:08:43.238Z,25.27
2019-04-20T17:12:48.091Z,25.51
2019-04-20T17:16:53.519Z,26.40
2019-04-20T17:21:04.474Z,26.97
2019-04-20T17:25:04.084Z,27.93
2019-04-20T17:29:23.917Z,28.43
2019-04-20T17:34:01.385Z,28.64
2019-04-20T17:37:58.484Z,28.79
2019-04-20T17:42:22.250Z,28.76
2019-04-20T17:46:28.732Z,28.65
2019-04-20T17:50:37.336Z,29.26
2019-04-20T17:54:49.491Z,29.50
2019-04-20T17:58:54.232Z,29.69
2019-04-20T18:03:17.578Z,29.88
2019-04-20T18:07:32.480Z,29.91
2019-04-20T18:11:19.569Z,30.33
2019-04-20T18:15:36.927Z,30.69
2019-04-20T18:19:34.544Z,31.03
2019-04-20T18:23:41.178Z,31.24
2019-04-20T18:27:59.659Z,31.45
2019-04-20T18:32:09.357Z,31.75
2019-04-20T18:36:23.420Z,32.03
2019-04-20T18:40:31.018Z,32.22
2019-04-20T18:44:34.687Z,32.47
2019-04-20T18:48:57.111Z,32.91
2019-04-20T18:52:39.933Z,33.15
2019-04-20T18:56:48.913Z,33.44
2019-04-20T19:00:51.949Z,33.69
2019-04-20T19:04:58.581Z,33.88
2019-04-20T19:09:02.907Z,34.10
2019-04-20T19:13:22.385Z,34.28
2019-04-20T19:17:45.202Z,34.59
2019-04-20T19:21:40.233Z,34.91
2019-04-20T19:25:45.766Z,35.03
2019-04-20T19:29:58.917Z,35.33
2019-04-20T19:34:15.252Z,35.61
2019-04-20T19:38:10.370Z,35.81
2019-04-20T19:42:27.613Z,36.01
2019-04-20T19:46:49.400Z,35.94
2019-04-20T19:50:41.342Z,36.10
2019-04-20T19:54:46.518Z,36.25
2019-04-20T19:58:45.557Z,36.56
2019-04-20T20:02:39.600Z,36.61
2019-04-20T20:06:51.721Z,36.69
2019-04-20T20:10:50.671Z,36.88
2019-04-20T20:14:55.384Z,37.16
2019-04-20T20:19:08.151Z,37.27
2019-04-20T20:23:05.817Z,37.43
2019-04-20T20:27:20.710Z,37.69
2019-04-20T20:31:24.577Z,37.56
2019-04-20T20:35:26.091Z,37.59
2019-04-20T20:39:31.672Z,38.10
2019-04-20T20:43:49.699Z,38.43
2019-04-20T20:48:01.618Z,38.59
2019-04-20T20:52:09.786Z,38.56
2019-04-20T20:56:07.935Z,38.21
2019-04-20T21:00:07.899Z,38.18
2019-04-20T21:04:06.941Z,39.15
2019-04-20T21:08:11.429Z,39.58
2019-04-20T21:12:17.871Z,40.82
2019-04-20T21:16:26.677Z,42.41
2019-04-20T21:20:49.113Z,42.73
2019-04-20T21:24:37.944Z,42.67
2019-04-20T21:28:43.997Z,42.15
2019-04-20T21:32:51.978Z,42.17
2019-04-20T21:37:01.843Z,41.97
2019-04-20T21:41:06.557Z,41.88
2019-04-20T21:45:15.864Z,42.12
2019-04-20T21:49:33.533Z,42.38
2019-04-20T21:53:25.071Z,42.86
2019-04-20T21:57:26.036Z,42.50
2019-04-20T22:01:37.683Z,42.68
2019-04-20T22:05:38.146Z,42.65
2019-04-20T22:09:46.783Z,42.64
2019-04-20T22:13:50.835Z,42.83
2019-04-20T22:17:54.749Z,42.97
2019-04-20T22:22:07.785Z,43.50
2019-04-20T22:26:18.702Z,43.73
2019-04-20T22:30:12.267Z,43.89
2019-04-20T22:34:20.905Z,43.94
2019-04-20T22:38:29.351Z,44.19
2019-04-20T22:42:40.112Z,44.25
2019-04-20T22:46:41.950Z,44.39
2019-04-20T22:51:08.339Z,44.47
2019-04-20T22:55:10.068Z,44.52
2019-04-20T22:59:06.259Z,44.63
2019-04-20T23:03:04.926Z,44.72
2019-04-20T23:07:10.603Z,44.60
2019-04-20T23:11:23.126Z,44.38
2019-04-20T23:15:23.758Z,44.46
2019-04-20T23:19:38.182Z,44.66
2019-04-20T23:23:35.615Z,44.76
2019-04-20T23:27:42.096Z,44.93
2019-04-20T23:31:55.332Z,45.14
2019-04-20T23:35:59.169Z,45.31
2019-04-20T23:40:02.696Z,45.19
2019-04-20T23:44:39.487Z,45.26
2019-04-20T23:49:15.853Z,45.32
2019-04-20T23:53:34.656Z,45.45
2019-04-20T23:57:21.873Z,45.73
